Weather observations for the past three days for
Provincetown Municipal Airport
| Date | Time (edt) | Wind (kph) | Vis. (km) | Weather | Sky Cond. | Temperature (ºC) | Relative Humidity | Wind Chill (°C) | Heat Index (°C) | Pressure | Precipitation (cm) | ||||||
|---|---|---|---|---|---|---|---|---|---|---|---|---|---|---|---|---|---|
| Air | Dwpt | 6 hour | altimeter (cm) | sea level (mb) | 1 hr | 3 hr | 6 hr | ||||||||||
| Max. | Min. | ||||||||||||||||
| 10 | 18:56 | SW 17 | 16.09 | Mostly Cloudy | BKN100 | 15 | 13.9 | 93% | 75.95 | 1012.3 | |||||||
| 10 | 17:56 | S 24 | 16.09 | Fair | CLR | 16.1 | 13.3 | 84% | 75.9 | 1011.9 | |||||||
| 10 | 16:56 | SW 24 G 35 | 16.09 | Fair | CLR | 17.2 | 14.4 | 84% | 75.95 | 1012.4 | |||||||
| 10 | 15:56 | SW 24 G 37 | 16.09 | Fair | CLR | 18.3 | 15 | 81% | 75.97 | 1012.6 | |||||||
| 10 | 14:56 | S 22 | 16.09 | A Few Clouds | FEW090 | 19.4 | 14.4 | 73% | 75.95 | 1012.4 | |||||||
| 10 | 13:56 | S 19 | 16.09 | Fair | CLR | 18.3 | 15.6 | 18.3 | 12.2 | 84% | 76 | 1013.1 | |||||
| 10 | 12:56 | S 24 | 16.09 | Fair | CLR | 16.7 | 15 | 90% | 76.02 | 1013.3 | |||||||
| 10 | 11:56 | S 22 | 16.09 | Fair | CLR | 17.2 | 15.6 | 90% | 76.02 | 1013.6 | |||||||
| 10 | 10:56 | S 17 | 16.09 | Mostly Cloudy | BKN002 | 15 | 15 | 100% | 76.05 | 1013.7 | |||||||
| 10 | 09:56 | SW 19 | 8.05 | Overcast with Haze | OVC002 | 14 | 0 | 0% | 76.05 | 1013.6 | |||||||
| 10 | 08:56 | S 15 | 8.05 | Overcast with Haze | OVC002 | 13 | 0 | 0% | 76 | 1013.1 | |||||||
| 10 | 07:56 | S 11 | 1.61 | Fog/Mist | OVC002 | 12 | 0 | 12.2 | 11.7 | 0% | 76.05 | 1013.8 | |||||
| 10 | 06:56 | S 17 | 14.48 | Overcast | OVC004 | 12 | 0 | 0% | 76.05 | 1013.8 | |||||||
| 10 | 05:56 | S 15 | 12.87 | Overcast | OVC004 | 12 | 0 | 0% | 76 | 1013.1 | |||||||
| 10 | 04:56 | S 15 | 6.44 | Overcast with Haze | OVC002 | 12 | 0 | 0% | 75.97 | 1012.6 | |||||||
| 10 | 03:56 | S 20 G 30 | 14.48 | Overcast | BKN004 OVC021 | 12 | 0 | 0% | 75.95 | 1012.5 | |||||||
| 10 | 02:56 | S 24 | 16.09 | Overcast | OVC017 | 12 | 0 | 0% | 75.9 | 1011.9 | |||||||
| 10 | 01:56 | S 20 G 33 | 16.09 | Overcast | OVC010 | 12 | 0 | 12.2 | 11.1 | 0% | 75.9 | 1011.9 | |||||
| 10 | 00:56 | S 19 G 33 | 16.09 | Overcast | BKN014 OVC039 | 12.2 | 12.2 | 100% | 75.92 | 1012.2 | |||||||
| 09 | 23:56 | SE 19 | 16.09 | Mostly Cloudy | SCT041 BKN050 BKN110 | 11.7 | 11.7 | 100% | 75.95 | 1012.5 | |||||||
| 09 | 22:56 | SE 11 | 16.09 | Mostly Cloudy | SCT075 BKN095 | 11.1 | 11.1 | 100% | 76.02 | 1013.3 | |||||||
| 09 | 21:56 | S 17 | 16.09 | Light Rain | FEW031 SCT041 BKN050 | 11 | 0 | 0% | 76.1 | 1014.3 | |||||||
| 09 | 20:56 | S 15 | 16.09 | Light Rain | FEW017 SCT050 BKN060 | 12 | 0 | 0% | 76.15 | 1015.1 | |||||||
| 09 | 18:56 | S 13 | 16.09 | Light Rain | FEW028 BKN033 BKN070 | 12.2 | 12.2 | 100% | 76.07 | 1014.3 | |||||||
| 09 | 17:56 | S 24 G 37 | 14.48 | Mostly Cloudy | SCT045 BKN055 BKN070 | 13.3 | 11.1 | 87% | 76.05 | 1013.7 | |||||||
| 09 | 16:56 | S 17 | 16.09 | Partly Cloudy | SCT045 | 12.8 | 12.8 | 100% | 76 | 1013.2 | |||||||
| 09 | 15:56 | S 22 G 35 | 16.09 | Partly Cloudy | SCT041 | 14.4 | 11.7 | 84% | 76.02 | 1013.5 | |||||||
| 09 | 14:56 | S 20 | 16.09 | A Few Clouds | FEW100 | 13.9 | 11.7 | 87% | 76.02 | 1013.6 | |||||||
| 09 | 13:56 | S 19 G 33 | 16.09 | Light Rain | FEW075 | 13.9 | 11.1 | 15 | 10.6 | 83% | 76.07 | 1014.1 | |||||
| 09 | 12:56 | S 19 G 33 | 16.09 | A Few Clouds | FEW080 | 15 | 10 | 72% | 76.07 | 1014.1 | |||||||
| 09 | 11:56 | S 22 | 16.09 | Mostly Cloudy | BKN080 | 13.9 | 8.9 | 72% | 76.12 | 1014.6 | |||||||
| 09 | 10:56 | S 17 | 16.09 | Partly Cloudy | SCT075 | 14.4 | 8.9 | 70% | 76.15 | 1015.0 | |||||||
| 09 | 09:56 | S 13 | 16.09 | A Few Clouds | FEW002 | 12.8 | 10 | 83% | 76.17 | 1015.5 | |||||||
| 09 | 08:56 | E 7 | 16.09 | Light Rain | OVC075 | 11.1 | 10.6 | 97% | 76.17 | 1015.4 | |||||||
| 09 | 07:56 | S 11 | 16.09 | Light Rain | OVC055 | 10.6 | 10.6 | 10.6 | 2.8 | 100% | 76.25 | 1016.6 | |||||
| 09 | 06:56 | SE 6 | 16.09 | Overcast | OVC070 | 7.8 | 7.8 | 100% | 76.2 | 1015.8 | |||||||
| 09 | 05:56 | Calm | 16.09 | Mostly Cloudy | BKN095 | 4.4 | 3.3 | 93% | 76.15 | 1015.3 | |||||||
| 09 | 04:56 | Calm | 16.09 | Fair | CLR | 3.9 | 3.9 | 100% | 76.12 | 1014.8 | |||||||
| 09 | 03:56 | S 6 | 16.09 | Fair | CLR | 6.1 | 6.1 | 100% | 76.15 | 1015.1 | |||||||
| 09 | 02:56 | SW 6 | 16.09 | Fair | CLR | 4.4 | 4.4 | 100% | 76.12 | 1014.7 | |||||||
| 09 | 01:56 | SW 6 | 16.09 | Fair | CLR | 5.6 | 5.6 | 11.1 | 5.6 | 100% | 76.1 | 1014.4 | |||||
| 09 | 00:56 | W 7 | 16.09 | Fair | CLR | 7.2 | 6.7 | 97% | 6 | 76.07 | 1014.2 | ||||||
| 08 | 23:56 | W 13 | 16.09 | Fair | CLR | 9.4 | 6.1 | 80% | 8 | 76.07 | 1014.1 | ||||||
| 08 | 22:56 | W 13 | 16.09 | Fair | CLR | 9.4 | 6.1 | 80% | 8 | 76.02 | 1013.5 | ||||||
| 08 | 21:56 | W 15 | 16.09 | Fair | CLR | 10 | 5.6 | 74% | 8 | 75.97 | 1012.9 | ||||||
| 08 | 20:56 | W 15 | 16.09 | Fair | CLR | 10.6 | 6.1 | 74% | 75.9 | 1011.7 | |||||||
| 08 | 19:56 | W 15 | 16.09 | Fair | CLR | 11.1 | 5 | 15.6 | 11.1 | 66% | 75.82 | 1010.6 | |||||
| 08 | 18:56 | SW 13 | 16.09 | Fair | CLR | 12.8 | 4.4 | 57% | 75.77 | 1010.0 | |||||||
| 08 | 17:56 | SW 17 G 30 | 16.09 | Light Rain | FEW037 BKN065 OVC100 | 12.8 | 3.3 | 53% | 75.74 | 1009.8 | |||||||
| 08 | 16:56 | SW 17 | 16.09 | Mostly Cloudy | SCT055 BKN075 | 12.8 | 6.7 | 67% | 75.74 | 1009.7 | |||||||
| 08 | 15:56 | SW 26 | 16.09 | Partly Cloudy | FEW080 SCT095 | 14.4 | 6.7 | 60% | 75.69 | 1009.0 | |||||||
| 08 | 14:56 | S 19 | 16.09 | Mostly Cloudy | BKN085 | 13.9 | -0.6 | 37% | 75.67 | 1008.9 | |||||||
| 08 | 13:56 | Vrbl 7 | 16.09 | Fair | CLR | 15 | -1.1 | 15.6 | 10 | 33% | 75.69 | 1009.1 | |||||
| 08 | 12:56 | SW 7 | 16.09 | A Few Clouds | FEW085 | 15 | -0.6 | 35% | 75.72 | 1009.5 | |||||||
| 08 | 11:56 | Vrbl 11 | 16.09 | Fair | CLR | 13.9 | -2.2 | 33% | 75.77 | 1009.9 | |||||||
| 08 | 10:56 | W 13 | 16.09 | Fair | CLR | 12.8 | 1.1 | 45% | 75.79 | 1010.4 | |||||||
| 08 | 09:56 | W 13 | 16.09 | Partly Cloudy | FEW001 SCT110 | 12.2 | 2.2 | 51% | 75.79 | 1010.4 | |||||||
| 08 | 08:56 | W 13 | 16.09 | Mostly Cloudy | BKN110 | 11.1 | 3.3 | 59% | 75.79 | 1010.5 | |||||||
| 08 | 07:56 | W 13 | 16.09 | A Few Clouds | FEW120 | 10 | 4.4 | 10 | 4.4 | 68% | 8 | 75.79 | 1010.5 | ||||
| 08 | 06:56 | W 7 | 16.09 | Fair | CLR | 9.4 | 5.6 | 77% | 9 | 75.77 | 1010.1 | ||||||
| 08 | 05:56 | W 9 | 16.09 | Fair | CLR | 7.8 | 7.2 | 96% | 6 | 75.74 | 1009.6 | ||||||
| 08 | 04:56 | W 7 | 16.09 | Fair | CLR | 4.4 | 4.4 | 100% | 3 | 75.69 | 1008.9 | ||||||
| 08 | 03:56 | NW 6 | 16.09 | Fair | CLR | 7.2 | 5 | 86% | 75.62 | 1008.0 | |||||||
| 08 | 02:56 | N 9 | 16.09 | Fair | CLR | 8.9 | 6.7 | 86% | 8 | 75.59 | 1007.8 | ||||||
| 08 | 01:56 | NW 20 | 16.09 | Fair | CLR | 10 | 6.1 | 11.1 | 8.9 | 77% | 8 | 75.59 | 1007.7 | ||||
| 08 | 00:56 | NW 13 | 16.09 | Fair | CLR | 10 | 6.7 | 80% | 8 | 75.59 | 1007.6 | ||||||
| 07 | 23:56 | W 15 | 16.09 | Fair | CLR | 10.6 | 6.1 | 74% | 75.57 | 1007.4 | |||||||
| 07 | 22:56 | W 13 | 16.09 | Fair | CLR | 10.6 | 6.1 | 74% | 75.59 | 1007.5 | |||||||
| 07 | 21:56 | W 13 | 16.09 | Fair | CLR | 10 | 8.9 | 93% | 8 | 75.59 | 1007.6 | ||||||
| 07 | 20:56 | SW 11 | 16.09 | Fair | CLR | 9.4 | 9.4 | 100% | 8 | 75.57 | 1007.3 | ||||||
| 07 | 19:56 | S 7 | 16.09 | Fair | CLR | 11.1 | 8.9 | 16.1 | 11.1 | 86% | 75.49 | 1006.3 | |||||
| Date | Time (edt) | Wind (kph) | Vis. (km) | Weather | Sky Cond. | Air | Dwpt | Max. | Min. | Relative Humidity | Wind Chill (°C) | Heat Index (°C) | altimeter (cm) | sea level (mb) | 1 hr | 3 hr | 6 hr |
| 6 hour | |||||||||||||||||
| Temperature (ºC) | Pressure | Precipitation (cm) | |||||||||||||||